Time;durP1;ratioP1;P1;durP2;ratioP2;P2;SDS_P1;SDS_P2;PMS_P1;PMS_P2;Temp;Humidity;BMP_temperature;BMP_pressure;BME280_temperature;BME280_humidity;BME280_pressure;Samples;Min_cycle;Max_cycle;Signal;HPM_P1;HPM_P2
2024/03/27 00:01:41;;;;;;;0.10;0.10;;;6.70;99.90;;;;;;4985527;28;20058;-74
2024/03/27 00:04:09;;;;;;;0.30;0.20;;;6.70;99.90;;;;;;4985839;28;20109;-74
2024/03/27 00:06:35;;;;;;;0.10;0.10;;;6.70;1.00;;;;;;4985191;28;20054;-74
2024/03/27 00:09:01;;;;;;;0.10;0.10;;;6.70;1.00;;;;;;4969483;28;20058;-74
2024/03/27 00:11:27;;;;;;;0.40;0.20;;;6.70;1.00;;;;;;4953839;28;20062;-74
2024/03/27 00:13:54;;;;;;;0.20;0.20;;;6.70;1.00;;;;;;4955660;28;20403;-74
2024/03/27 00:16:20;;;;;;;0.17;0.17;;;6.70;1.00;;;;;;4979986;28;20346;-74
2024/03/27 00:18:46;;;;;;;0.20;0.20;;;6.70;1.00;;;;;;4988729;28;20057;-74
2024/03/27 00:21:12;;;;;;;0.10;0.10;;;6.60;99.90;;;;;;4988074;28;20484;-74
2024/03/27 00:23:38;;;;;;;0.20;0.10;;;6.60;99.90;;;;;;4971908;28;20429;-74
2024/03/27 00:26:04;;;;;;;0.20;0.20;;;6.50;99.90;;;;;;4967013;28;20046;-74
2024/03/27 00:28:30;;;;;;;0.10;0.10;;;6.50;99.90;;;;;;5001684;28;20454;-74
2024/03/27 00:30:56;;;;;;;0.10;0.10;;;6.40;99.90;;;;;;4987960;28;20054;-74
2024/03/27 00:33:23;;;;;;;0.40;0.40;;;6.40;1.00;;;;;;4971437;28;20132;-74
2024/03/27 00:35:55;;;;;;;0.20;0.20;;;6.40;1.00;;;;;;4986304;28;20042;-74
2024/03/27 00:38:21;;;;;;;0.20;0.20;;;6.40;1.00;;;;;;4969089;28;20058;-74
2024/03/27 00:40:50;;;;;;;0.30;0.10;;;6.40;1.00;;;;;;4969399;28;20065;-75
2024/03/27 00:43:16;;;;;;;0.30;0.20;;;6.30;1.00;;;;;;4953274;28;20104;-74
2024/03/27 00:45:42;;;;;;;0.30;0.28;;;6.30;1.00;;;;;;4959131;28;20058;-74
2024/03/27 00:48:08;;;;;;;0.28;0.20;;;6.30;1.00;;;;;;4970721;28;20113;-74
2024/03/27 00:50:34;;;;;;;0.10;0.10;;;6.30;1.00;;;;;;4987131;28;20132;-74
2024/03/27 00:53:01;;;;;;;0.10;0.10;;;6.20;1.00;;;;;;4987611;28;20136;-74
2024/03/27 00:55:26;;;;;;;0.20;0.20;;;6.20;99.90;;;;;;4957461;28;20497;-74
2024/03/27 00:57:52;;;;;;;0.25;0.22;;;6.20;99.90;;;;;;5004497;28;20089;-74
2024/03/27 01:00:18;;;;;;;0.10;0.10;;;6.10;99.90;;;;;;4988384;28;20952;-74
2024/03/27 01:02:45;;;;;;;0.10;0.10;;;6.10;99.90;;;;;;4985729;28;20422;-74
2024/03/27 01:05:11;;;;;;;0.10;0.10;;;6.10;99.90;;;;;;4967809;28;20501;-73
2024/03/27 01:07:37;;;;;;;0.10;0.10;;;6.00;99.90;;;;;;4952014;28;20073;-74
2024/03/27 01:10:05;;;;;;;0.10;0.10;;;6.00;99.90;;;;;;4987678;28;20054;-74
2024/03/27 01:12:31;;;;;;;0.20;0.20;;;6.00;99.90;;;;;;4945502;28;20066;-74
2024/03/27 01:14:56;;;;;;;0.20;0.20;;;6.00;99.90;;;;;;4983805;28;20073;-74
2024/03/27 01:17:22;;;;;;;0.10;0.10;;;5.90;1.00;;;;;;4971061;28;20493;-74
2024/03/27 01:19:48;;;;;;;0.10;0.10;;;6.00;1.00;;;;;;5003027;28;20057;-75
2024/03/27 01:22:15;;;;;;;0.20;0.20;;;6.00;1.00;;;;;;4985804;28;20053;-75
2024/03/27 01:24:41;;;;;;;0.10;0.10;;;5.90;1.00;;;;;;5003902;28;20501;-74
2024/03/27 01:27:07;;;;;;;0.28;0.20;;;5.90;1.00;;;;;;4951734;28;20059;-74
2024/03/27 01:29:33;;;;;;;0.22;0.20;;;5.90;1.00;;;;;;4984312;28;20050;-74
2024/03/27 01:31:59;;;;;;;0.30;0.30;;;5.90;1.00;;;;;;4985712;28;20060;-74
2024/03/27 01:34:24;;;;;;;0.20;0.20;;;5.90;1.00;;;;;;4967264;28;20437;-74
2024/03/27 01:36:50;;;;;;;0.25;0.25;;;5.90;1.00;;;;;;4963820;28;20053;-73
2024/03/27 01:39:16;;;;;;;0.28;0.28;;;5.90;1.00;;;;;;4970997;28;20135;-74
2024/03/27 01:41:42;;;;;;;0.30;0.30;;;5.80;22.20;;;;;;4991465;28;20149;-73
2024/03/27 01:44:16;;;;;;;0.20;0.20;;;5.90;99.90;;;;;;4968098;28;20181;-74
2024/03/27 01:46:42;;;;;;;0.20;0.20;;;5.80;99.90;;;;;;4944811;28;20058;-74
2024/03/27 01:49:08;;;;;;;0.35;0.35;;;5.80;99.90;;;;;;4970213;28;20057;-74
2024/03/27 01:51:34;;;;;;;0.40;0.40;;;5.80;99.90;;;;;;4969470;28;20523;-74
2024/03/27 01:54:00;;;;;;;0.60;0.25;;;5.90;1.00;;;;;;4941737;28;20267;-74
2024/03/27 01:56:26;;;;;;;0.20;0.20;;;5.90;1.00;;;;;;4970416;28;20095;-74
2024/03/27 01:58:52;;;;;;;0.30;0.30;;;5.90;1.00;;;;;;4986855;28;20062;-74
2024/03/27 02:01:18;;;;;;;0.43;0.30;;;5.90;1.00;;;;;;4986630;28;20091;-74
2024/03/27 02:03:44;;;;;;;0.32;0.25;;;5.90;40.90;;;;;;4986545;28;20053;-74
2024/03/27 02:06:10;;;;;;;0.20;0.20;;;5.90;1.00;;;;;;4953754;28;20634;-74
2024/03/27 02:08:36;;;;;;;0.40;0.40;;;5.90;1.00;;;;;;5002754;28;20141;-74
2024/03/27 02:11:02;;;;;;;0.20;0.20;;;5.90;1.00;;;;;;4986571;28;20129;-74
2024/03/27 02:13:28;;;;;;;0.63;0.60;;;5.90;1.00;;;;;;4966984;28;20061;-74
2024/03/27 02:16:00;;;;;;;0.10;0.10;;;6.00;41.70;;;;;;4969898;28;20184;-74
2024/03/27 02:18:26;;;;;;;0.20;0.20;;;5.90;1.00;;;;;;4967059;28;20062;-74
2024/03/27 02:20:52;;;;;;;0.20;0.20;;;6.00;99.90;;;;;;4985468;28;20509;-74
2024/03/27 02:23:19;;;;;;;0.20;0.20;;;6.00;1.00;;;;;;4986155;28;20066;-74
2024/03/27 02:26:08;;;;;;;0.20;0.20;;;6.00;1.00;;;;;;4954263;28;20051;-74
2024/03/27 02:28:34;;;;;;;0.20;0.20;;;6.00;99.90;;;;;;4962378;28;20065;-74
2024/03/27 02:31:00;;;;;;;0.38;0.20;;;6.00;99.90;;;;;;4956573;28;20109;-75
2024/03/27 02:33:26;;;;;;;0.22;0.22;;;6.10;99.90;;;;;;4996117;28;20085;-74
2024/03/27 02:35:51;;;;;;;0.30;0.30;;;6.10;99.90;;;;;;4982492;28;20050;-74
2024/03/27 02:38:17;;;;;;;0.10;0.10;;;6.10;99.90;;;;;;4982911;28;20054;-75
2024/03/27 02:40:43;;;;;;;0.20;0.20;;;6.00;99.90;;;;;;4990378;28;20061;-74
2024/03/27 02:43:09;;;;;;;0.10;0.10;;;6.00;99.90;;;;;;4980403;28;20054;-74
2024/03/27 02:45:35;;;;;;;0.30;0.17;;;6.00;99.90;;;;;;4973077;28;20041;-74
2024/03/27 02:48:00;;;;;;;0.10;0.10;;;5.90;99.90;;;;;;4989182;28;20107;-74
2024/03/27 02:50:26;;;;;;;0.20;0.20;;;5.90;99.90;;;;;;5005251;28;20061;-74
2024/03/27 02:52:53;;;;;;;0.10;0.10;;;5.90;99.90;;;;;;4988411;28;20046;-74
2024/03/27 02:55:19;;;;;;;0.38;0.30;;;5.90;99.90;;;;;;5003511;28;20049;-74
2024/03/27 02:57:45;;;;;;;0.10;0.10;;;5.80;99.90;;;;;;5004670;28;20050;-73
2024/03/27 03:00:11;;;;;;;0.20;0.20;;;5.80;99.90;;;;;;4978706;28;20054;-74
2024/03/27 03:02:37;;;;;;;0.10;0.10;;;5.80;99.90;;;;;;5003853;28;20064;-74
2024/03/27 03:05:03;;;;;;;0.20;0.20;;;5.80;99.90;;;;;;4999536;28;20054;-74
2024/03/27 03:07:29;;;;;;;0.10;0.10;;;5.70;99.90;;;;;;5003710;28;20053;-74
2024/03/27 03:09:54;;;;;;;0.20;0.20;;;5.80;1.00;;;;;;4987584;28;20058;-74
2024/03/27 03:12:20;;;;;;;0.10;0.10;;;5.80;1.00;;;;;;4967756;28;20054;-74
2024/03/27 03:14:46;;;;;;;0.20;0.20;;;5.80;23.70;;;;;;4984758;28;20140;-74
2024/03/27 03:17:12;;;;;;;0.20;0.10;;;5.80;17.60;;;;;;4936650;28;20051;-74
2024/03/27 03:19:38;;;;;;;0.95;0.20;;;5.80;99.90;;;;;;4984421;28;20065;-74
2024/03/27 03:22:04;;;;;;;0.17;0.17;;;5.80;99.90;;;;;;4936347;28;20133;-74
2024/03/27 03:24:30;;;;;;;0.20;0.20;;;5.90;99.90;;;;;;4989036;28;20049;-74
2024/03/27 03:26:56;;;;;;;0.20;0.20;;;5.90;99.90;;;;;;4988099;28;20060;-74
2024/03/27 03:29:21;;;;;;;1.13;0.32;;;5.90;99.90;;;;;;4968097;28;20491;-74
2024/03/27 03:31:47;;;;;;;0.30;0.30;;;5.90;99.90;;;;;;4985562;28;20101;-74
2024/03/27 03:34:14;;;;;;;0.20;0.20;;;6.00;1.00;;;;;;4967995;28;20064;-74
2024/03/27 03:36:40;;;;;;;0.65;0.20;;;6.10;1.00;;;;;;4952250;28;20050;-74
2024/03/27 03:39:06;;;;;;;0.20;0.20;;;6.10;1.00;;;;;;4968500;28;20421;-74
2024/03/27 03:41:32;;;;;;;0.10;0.10;;;6.10;1.00;;;;;;4968169;28;20047;-74
2024/03/27 03:43:57;;;;;;;0.30;0.30;;;6.20;1.00;;;;;;4968360;28;20058;-74
2024/03/27 03:46:23;;;;;;;0.20;0.20;;;6.20;1.00;;;;;;4952445;28;20084;-74
2024/03/27 03:48:49;;;;;;;0.40;0.28;;;6.20;99.90;;;;;;4975688;28;20137;-74
2024/03/27 03:51:15;;;;;;;0.32;0.28;;;6.10;99.90;;;;;;4966236;28;20073;-75
2024/03/27 03:53:41;;;;;;;0.30;0.30;;;6.20;99.90;;;;;;4983869;28;20105;-75
2024/03/27 03:56:06;;;;;;;0.30;0.30;;;6.10;99.90;;;;;;4971625;28;20486;-75
2024/03/27 03:58:32;;;;;;;0.73;0.30;;;6.10;99.90;;;;;;5003832;28;20061;-74
2024/03/27 04:00:58;;;;;;;0.25;0.20;;;6.10;99.90;;;;;;4971602;28;20060;-75
2024/03/27 04:03:24;;;;;;;0.28;0.28;;;6.10;99.90;;;;;;4987619;28;20468;-75
2024/03/27 04:05:50;;;;;;;0.32;0.32;;;6.10;99.90;;;;;;4987242;28;20259;-75
2024/03/27 04:08:16;;;;;;;0.55;0.30;;;6.10;99.90;;;;;;4959073;28;20091;-74
2024/03/27 04:10:42;;;;;;;0.20;0.20;;;6.20;99.90;;;;;;4973987;28;20060;-75
2024/03/27 04:13:08;;;;;;;0.20;0.20;;;6.20;99.90;;;;;;4991002;28;20050;-75
2024/03/27 04:15:40;;;;;;;0.20;0.20;;;6.20;99.90;;;;;;4974620;28;20108;-75
2024/03/27 04:18:06;;;;;;;0.20;0.20;;;6.20;99.90;;;;;;5007122;28;20053;-75
2024/03/27 04:20:31;;;;;;;0.30;0.20;;;6.20;99.90;;;;;;5006729;28;20058;-75
2024/03/27 04:22:57;;;;;;;0.30;0.30;;;6.30;99.90;;;;;;5006601;28;20053;-75
2024/03/27 04:25:23;;;;;;;0.25;0.25;;;6.40;99.90;;;;;;4990901;28;20115;-75
2024/03/27 04:27:50;;;;;;;0.10;0.10;;;6.40;99.90;;;;;;4990976;28;20053;-75
2024/03/27 04:30:17;;;;;;;0.20;0.20;;;6.40;99.90;;;;;;4991315;28;20058;-75
2024/03/27 04:32:43;;;;;;;0.10;0.10;;;6.30;76.10;;;;;;4990049;28;20457;-75
2024/03/27 04:35:09;;;;;;;0.30;0.30;;;6.30;84.30;;;;;;4990640;28;20107;-75
2024/03/27 04:37:36;;;;;;;0.10;0.10;;;6.30;1.00;;;;;;5006505;28;20069;-74
2024/03/27 04:40:09;;;;;;;0.20;0.20;;;6.20;22.60;;;;;;4990894;28;20169;-75
2024/03/27 04:42:36;;;;;;;0.13;0.13;;;6.30;12.80;;;;;;4989318;28;20278;-74
2024/03/27 04:45:07;;;;;;;0.17;0.17;;;6.20;1.00;;;;;;4955250;28;20490;-74
2024/03/27 04:47:33;;;;;;;0.20;0.20;;;6.20;1.00;;;;;;4942754;28;20062;-75
2024/03/27 04:49:59;;;;;;;0.40;0.30;;;6.20;24.00;;;;;;4970395;28;20054;-74
2024/03/27 04:52:25;;;;;;;0.20;0.20;;;6.20;46.10;;;;;;4953662;28;20057;-75
2024/03/27 04:54:51;;;;;;;0.20;0.20;;;6.10;10.30;;;;;;4970991;28;20096;-74
2024/03/27 04:57:17;;;;;;;0.20;0.20;;;6.10;40.40;;;;;;4963901;28;20137;-74
2024/03/27 04:59:43;;;;;;;0.20;0.20;;;6.10;82.00;;;;;;4990368;28;20120;-74
2024/03/27 05:02:09;;;;;;;0.30;0.22;;;6.10;92.00;;;;;;4989443;28;20058;-74
2024/03/27 05:04:35;;;;;;;0.20;0.20;;;6.10;81.40;;;;;;4973774;28;20050;-75
2024/03/27 05:07:01;;;;;;;0.32;0.30;;;6.00;97.00;;;;;;5005721;28;20053;-74
2024/03/27 05:09:27;;;;;;;0.15;0.15;;;6.00;96.60;;;;;;4990396;28;20111;-75
2024/03/27 05:11:52;;;;;;;0.30;0.28;;;6.00;88.90;;;;;;4990063;28;20049;-75
2024/03/27 05:14:18;;;;;;;0.10;0.10;;;6.00;80.20;;;;;;4990163;28;20060;-75
2024/03/27 05:16:46;;;;;;;0.22;0.20;;;5.90;81.40;;;;;;4989772;28;20064;-74
2024/03/27 05:19:12;;;;;;;0.20;0.20;;;5.90;99.90;;;;;;4973835;28;20424;-74
2024/03/27 05:21:39;;;;;;;0.20;0.20;;;5.90;74.10;;;;;;5002528;28;20476;-77
2024/03/27 05:24:06;;;;;;;0.20;0.20;;;5.80;1.00;;;;;;4992617;28;20050;-74
2024/03/27 05:26:32;;;;;;;0.20;0.20;;;5.80;48.30;;;;;;4970370;28;20054;-74
2024/03/27 05:28:58;;;;;;;0.10;0.10;;;5.80;48.40;;;;;;4954147;28;20050;-74
2024/03/27 05:31:25;;;;;;;0.20;0.20;;;5.80;4.80;;;;;;4969637;28;20051;-74
2024/03/27 05:33:51;;;;;;;0.20;0.20;;;5.70;1.00;;;;;;4969772;28;20070;-74
2024/03/27 05:36:16;;;;;;;0.20;0.20;;;5.70;28.00;;;;;;4969358;28;20073;-74
2024/03/27 05:38:42;;;;;;;0.10;0.10;;;5.70;72.30;;;;;;4986282;28;20051;-74
2024/03/27 05:41:08;;;;;;;0.20;0.20;;;5.60;99.90;;;;;;4999434;28;20053;-74
2024/03/27 05:43:35;;;;;;;0.20;0.20;;;5.60;94.90;;;;;;4970352;28;20062;-74
2024/03/27 05:46:01;;;;;;;0.20;0.20;;;5.50;99.90;;;;;;5002694;28;20054;-74
2024/03/27 05:48:27;;;;;;;0.10;0.10;;;5.50;99.90;;;;;;4984422;28;20138;-74
2024/03/27 05:50:53;;;;;;;0.22;0.22;;;5.50;99.90;;;;;;4982902;28;20085;-74
2024/03/27 05:53:20;;;;;;;0.20;0.20;;;5.50;99.90;;;;;;4966951;28;20049;-74
2024/03/27 05:55:58;;;;;;;0.55;0.32;;;5.40;99.90;;;;;;4961208;28;20046;-74
2024/03/27 05:58:24;;;;;;;0.63;0.47;;;5.40;99.90;;;;;;4962689;28;20058;-74
2024/03/27 06:00:50;;;;;;;0.32;0.32;;;5.50;99.90;;;;;;4945948;28;20050;-74
2024/03/27 06:03:16;;;;;;;0.45;0.40;;;5.40;99.90;;;;;;4992282;28;20058;-75
2024/03/27 06:05:42;;;;;;;0.45;0.30;;;5.50;99.90;;;;;;4971701;28;20054;-76
2024/03/27 06:08:08;;;;;;;0.22;0.20;;;5.40;99.90;;;;;;4963266;28;20058;-75
2024/03/27 06:10:34;;;;;;;0.30;0.20;;;5.50;99.90;;;;;;4965249;28;20256;-76
2024/03/27 06:13:04;;;;;;;0.13;0.13;;;5.50;99.90;;;;;;4982933;28;20274;-75
2024/03/27 06:15:33;;;;;;;0.20;0.20;;;5.50;99.90;;;;;;4968708;28;20042;-75
2024/03/27 06:17:59;;;;;;;0.20;0.20;;;5.50;99.90;;;;;;4986644;28;20111;-75
2024/03/27 06:20:25;;;;;;;0.10;0.10;;;5.60;1.00;;;;;;4969458;28;20516;-75
2024/03/27 06:22:50;;;;;;;0.65;0.20;;;5.60;1.00;;;;;;4974778;28;20058;-75
2024/03/27 06:25:17;;;;;;;0.30;0.20;;;5.60;99.90;;;;;;4951574;28;20108;-75
2024/03/27 06:27:43;;;;;;;0.52;0.20;;;5.70;1.00;;;;;;4964047;28;20077;-75
2024/03/27 06:30:10;;;;;;;1.75;0.30;;;5.70;1.00;;;;;;4966795;28;20061;-75
2024/03/27 06:32:37;;;;;;;1.02;0.30;;;5.70;1.00;;;;;;4977715;28;20050;-75
2024/03/27 06:35:05;;;;;;;0.30;0.30;;;5.80;1.00;;;;;;4975025;28;20176;-75
2024/03/27 06:37:31;;;;;;;0.50;0.20;;;5.80;1.00;;;;;;4984429;28;20062;-75
2024/03/27 06:39:57;;;;;;;0.30;0.30;;;5.80;1.00;;;;;;4968851;28;20041;-75
2024/03/27 06:42:23;;;;;;;0.38;0.22;;;5.90;1.00;;;;;;4963155;28;20058;-75
2024/03/27 06:44:49;;;;;;;0.13;0.13;;;5.90;1.00;;;;;;4962991;28;20064;-73
2024/03/27 06:47:15;;;;;;;0.55;0.50;;;5.90;1.00;;;;;;4982482;28;20370;-74
2024/03/27 06:49:41;;;;;;;0.10;0.10;;;6.00;1.00;;;;;;4969978;28;20057;-73
2024/03/27 06:52:06;;;;;;;0.20;0.20;;;6.00;1.00;;;;;;4946108;28;20100;-73
2024/03/27 06:54:32;;;;;;;0.30;0.10;;;6.10;1.00;;;;;;4963167;28;20060;-73
2024/03/27 06:56:58;;;;;;;0.40;0.30;;;6.20;1.00;;;;;;4963246;28;20045;-76
2024/03/27 06:59:24;;;;;;;0.15;0.15;;;6.20;1.00;;;;;;4986261;28;20184;-73
2024/03/27 07:01:50;;;;;;;0.30;0.30;;;6.30;1.00;;;;;;4998641;28;20050;-75
2024/03/27 07:04:16;;;;;;;0.28;0.20;;;6.30;1.00;;;;;;4994012;28;20461;-73
2024/03/27 07:06:42;;;;;;;0.25;0.20;;;6.40;1.00;;;;;;4997610;28;20065;-73
2024/03/27 07:09:08;;;;;;;0.30;0.30;;;6.50;1.00;;;;;;4993015;28;20507;-76
2024/03/27 07:11:34;;;;;;;0.30;0.20;;;6.50;1.00;;;;;;4978582;28;20046;-74
2024/03/27 07:14:01;;;;;;;0.85;0.43;;;6.60;1.00;;;;;;4966284;28;20073;-76
2024/03/27 07:16:27;;;;;;;0.95;0.30;;;6.70;99.90;;;;;;4978445;28;20059;-76
2024/03/27 07:18:53;;;;;;;0.22;0.20;;;6.70;99.90;;;;;;4966388;28;20113;-76
2024/03/27 07:21:19;;;;;;;0.40;0.20;;;6.70;99.90;;;;;;4962833;28;20050;-76
2024/03/27 07:23:46;;;;;;;0.20;0.20;;;6.80;99.90;;;;;;4974839;28;20133;-75
2024/03/27 07:26:12;;;;;;;0.25;0.20;;;6.90;99.90;;;;;;4981405;28;20066;-73
2024/03/27 07:28:37;;;;;;;0.20;0.20;;;6.90;36.60;;;;;;4949060;28;20059;-73
2024/03/27 07:31:03;;;;;;;0.30;0.30;;;7.00;1.00;;;;;;4982864;28;20050;-73
2024/03/27 07:33:29;;;;;;;0.63;0.43;;;7.00;1.00;;;;;;4983445;28;20058;-76
2024/03/27 07:35:56;;;;;;;0.10;0.10;;;7.10;99.90;;;;;;4984129;28;20429;-75
2024/03/27 07:38:23;;;;;;;0.63;0.30;;;7.10;99.90;;;;;;4966122;28;20053;-76
2024/03/27 07:40:49;;;;;;;0.22;0.20;;;7.20;99.90;;;;;;4962603;28;20054;-73
2024/03/27 07:43:15;;;;;;;1.42;0.30;;;7.20;99.90;;;;;;4961991;28;20057;-73
2024/03/27 07:45:41;;;;;;;0.40;0.40;;;7.30;99.90;;;;;;4967808;28;20437;-73
2024/03/27 07:48:07;;;;;;;0.95;0.30;;;7.40;1.00;;;;;;4963201;28;20050;-73
2024/03/27 07:50:33;;;;;;;0.77;0.30;;;7.40;99.90;;;;;;4963701;28;20084;-74
2024/03/27 07:52:59;;;;;;;0.63;0.50;;;7.50;99.90;;;;;;4958857;28;20085;-73
2024/03/27 07:55:24;;;;;;;0.77;0.30;;;7.60;99.90;;;;;;4971995;28;20136;-74
2024/03/27 07:57:50;;;;;;;1.60;0.50;;;7.70;1.00;;;;;;4958666;28;20056;-74
2024/03/27 08:00:16;;;;;;;0.35;0.30;;;7.80;99.90;;;;;;5004229;28;20058;-73
2024/03/27 08:02:42;;;;;;;0.93;0.40;;;7.90;1.00;;;;;;4984496;28;20227;-73
2024/03/27 08:05:09;;;;;;;0.40;0.40;;;7.90;99.90;;;;;;4966400;28;20071;-76
2024/03/27 08:07:35;;;;;;;0.60;0.25;;;8.10;99.90;;;;;;4963503;28;20049;-76
2024/03/27 08:10:03;;;;;;;1.00;0.47;;;8.10;99.90;;;;;;4969110;28;20072;-76
2024/03/27 08:12:30;;;;;;;0.47;0.32;;;8.20;99.90;;;;;;4973533;28;20512;-74
2024/03/27 08:14:57;;;;;;;1.45;0.55;;;8.30;1.00;;;;;;4967467;28;20954;-77
2024/03/27 08:17:23;;;;;;;0.55;0.20;;;8.40;99.90;;;;;;4983804;28;20049;-74
2024/03/27 08:19:49;;;;;;;1.27;0.50;;;8.60;99.90;;;;;;4964592;28;20555;-76
2024/03/27 08:22:15;;;;;;;1.85;0.60;;;8.60;99.90;;;;;;4985325;28;20046;-73
2024/03/27 08:24:41;;;;;;;1.02;0.60;;;8.70;1.00;;;;;;4953556;28;20699;-73
2024/03/27 08:27:07;;;;;;;0.77;0.68;;;8.80;99.90;;;;;;4966068;28;20049;-76
2024/03/27 08:29:34;;;;;;;0.43;0.43;;;8.90;99.90;;;;;;4970570;28;20072;-76
2024/03/27 08:32:00;;;;;;;0.90;0.40;;;9.10;99.90;;;;;;4986896;28;20469;-76
2024/03/27 08:34:27;;;;;;;1.35;0.40;;;9.30;34.60;;;;;;4968107;28;20054;-74
2024/03/27 08:36:54;;;;;;;1.20;0.50;;;9.30;99.90;;;;;;4955842;28;20049;-74
2024/03/27 08:39:21;;;;;;;1.02;0.55;;;9.40;99.90;;;;;;4972070;28;20612;-73
2024/03/27 08:41:48;;;;;;;0.75;0.50;;;9.40;99.90;;;;;;4987895;28;20061;-77
2024/03/27 08:44:15;;;;;;;0.65;0.40;;;9.50;99.90;;;;;;4970587;28;20057;-76
2024/03/27 08:46:42;;;;;;;2.60;0.95;;;9.60;99.90;;;;;;4986116;28;20050;-76
2024/03/27 08:49:11;;;;;;;0.82;0.40;;;9.50;99.90;;;;;;4970809;28;20386;-77
2024/03/27 08:51:37;;;;;;;1.75;1.05;;;9.50;99.90;;;;;;4953953;28;20619;-73
2024/03/27 08:54:03;;;;;;;0.47;0.38;;;9.40;99.90;;;;;;4970494;28;20133;-74
2024/03/27 08:56:29;;;;;;;0.95;0.75;;;9.30;99.90;;;;;;4955379;28;20068;-74
2024/03/27 08:58:55;;;;;;;0.63;0.40;;;9.40;99.90;;;;;;4971714;28;20207;-73
2024/03/27 09:01:21;;;;;;;1.27;0.63;;;9.50;99.90;;;;;;4970893;28;20076;-73
2024/03/27 09:03:47;;;;;;;0.43;0.38;;;9.70;96.70;;;;;;4950947;28;20152;-76
2024/03/27 09:06:13;;;;;;;0.73;0.50;;;10.00;99.90;;;;;;4967590;28;20054;-75
2024/03/27 09:08:39;;;;;;;2.13;1.20;;;10.40;92.60;;;;;;4986628;28;20054;-73
2024/03/27 09:11:06;;;;;;;1.73;0.98;;;10.50;72.20;;;;;;4987227;28;20069;-73
2024/03/27 09:13:32;;;;;;;0.38;0.35;;;10.60;61.00;;;;;;4970300;28;20093;-73
2024/03/27 09:15:58;;;;;;;1.02;0.55;;;10.90;46.50;;;;;;4986892;28;20489;-73
2024/03/27 09:18:25;;;;;;;1.15;0.50;;;11.00;41.20;;;;;;4963775;28;20065;-74
2024/03/27 09:20:54;;;;;;;1.60;0.70;;;11.10;25.70;;;;;;4970336;28;20057;-73
2024/03/27 09:23:21;;;;;;;1.95;0.50;;;11.10;14.50;;;;;;4965542;28;20061;-73
2024/03/27 09:25:57;;;;;;;1.23;0.40;;;11.00;8.40;;;;;;4948190;28;20461;-73
2024/03/27 09:28:23;;;;;;;1.10;0.60;;;11.00;11.30;;;;;;4957521;28;20104;-74
2024/03/27 09:30:49;;;;;;;0.65;0.50;;;11.00;11.20;;;;;;4951963;28;20120;-74
2024/03/27 09:33:15;;;;;;;1.10;0.63;;;11.00;6.60;;;;;;4942445;28;20061;-74
2024/03/27 09:35:46;;;;;;;0.55;0.40;;;11.10;1.00;;;;;;4953557;28;20071;-74
2024/03/27 09:38:12;;;;;;;1.38;0.40;;;11.00;1.00;;;;;;4971323;28;20054;-74
2024/03/27 09:40:39;;;;;;;3.40;0.88;;;11.00;1.00;;;;;;4986945;28;20066;-74
2024/03/27 09:43:05;;;;;;;1.10;0.60;;;11.00;1.00;;;;;;4996804;28;20050;-74
2024/03/27 09:45:33;;;;;;;0.57;0.38;;;11.10;1.00;;;;;;4986772;28;20065;-75
2024/03/27 09:47:58;;;;;;;1.00;0.50;;;11.40;1.00;;;;;;4971510;28;20045;-75
2024/03/27 09:50:25;;;;;;;0.50;0.20;;;11.50;1.00;;;;;;4985512;28;20862;-76
2024/03/27 09:52:51;;;;;;;0.68;0.43;;;11.70;1.00;;;;;;4981814;28;20052;-75
2024/03/27 09:55:17;;;;;;;0.40;0.40;;;11.60;1.00;;;;;;4967588;28;20477;-75
2024/03/27 09:57:43;;;;;;;0.75;0.50;;;11.60;1.00;;;;;;4961318;28;20046;-75
2024/03/27 10:00:09;;;;;;;1.27;0.68;;;11.50;1.00;;;;;;4968757;28;20107;-75
2024/03/27 10:02:36;;;;;;;1.00;0.43;;;11.30;1.00;;;;;;4986075;28;20429;-76
2024/03/27 10:05:02;;;;;;;1.23;0.60;;;11.40;1.00;;;;;;4982853;28;20050;-75
2024/03/27 10:07:29;;;;;;;0.57;0.30;;;11.20;1.00;;;;;;4998501;28;20088;-74
2024/03/27 10:09:54;;;;;;;1.52;0.52;;;11.10;1.00;;;;;;4947061;28;20076;-74
2024/03/27 10:12:20;;;;;;;0.50;0.20;;;11.10;1.00;;;;;;4948964;28;20446;-74
2024/03/27 10:14:46;;;;;;;0.85;0.50;;;11.10;1.00;;;;;;4964302;28;20061;-74
2024/03/27 10:17:12;;;;;;;0.35;0.30;;;11.20;1.00;;;;;;4947968;28;20133;-74
2024/03/27 10:19:39;;;;;;;0.60;0.40;;;11.40;1.00;;;;;;4964020;28;20058;-74
2024/03/27 10:22:05;;;;;;;0.63;0.30;;;11.50;1.00;;;;;;4964998;28;20053;-74
2024/03/27 10:24:30;;;;;;;0.88;0.50;;;11.50;1.00;;;;;;4980240;28;20089;-74
2024/03/27 10:26:56;;;;;;;1.27;0.30;;;11.60;1.00;;;;;;4999994;28;20115;-74
2024/03/27 10:29:24;;;;;;;1.13;0.40;;;11.60;1.00;;;;;;4967612;28;20545;-74
2024/03/27 10:31:50;;;;;;;1.10;0.40;;;11.60;1.00;;;;;;4986068;28;20553;-74
2024/03/27 10:34:16;;;;;;;0.47;0.30;;;11.60;1.00;;;;;;4969949;28;20064;-74
2024/03/27 10:36:42;;;;;;;1.58;0.40;;;11.60;1.00;;;;;;4969974;28;20128;-74
2024/03/27 10:39:11;;;;;;;1.40;0.50;;;11.70;1.00;;;;;;4951601;28;20058;-74
2024/03/27 10:41:37;;;;;;;0.52;0.40;;;11.80;1.00;;;;;;4967133;28;20057;-74
2024/03/27 10:44:03;;;;;;;3.63;0.47;;;11.80;1.00;;;;;;4951469;28;20085;-74
2024/03/27 10:46:30;;;;;;;0.70;0.40;;;11.90;1.00;;;;;;5002492;28;20065;-74
2024/03/27 10:48:56;;;;;;;0.47;0.47;;;11.90;1.00;;;;;;4970000;28;20066;-74
2024/03/27 10:51:22;;;;;;;0.30;0.30;;;12.00;1.00;;;;;;4969206;28;20112;-76
2024/03/27 10:53:48;;;;;;;0.88;0.60;;;12.10;1.00;;;;;;5002483;28;20065;-76
2024/03/27 10:56:15;;;;;;;1.40;0.40;;;12.20;1.00;;;;;;4986033;28;20379;-76
2024/03/27 10:58:42;;;;;;;0.70;0.50;;;12.30;1.00;;;;;;4970004;28;20108;-74
2024/03/27 11:01:08;;;;;;;0.75;0.43;;;12.40;1.00;;;;;;4985735;28;20362;-74
2024/03/27 11:03:38;;;;;;;0.75;0.40;;;12.50;1.00;;;;;;4967705;28;20042;-74
2024/03/27 11:06:05;;;;;;;0.75;0.40;;;12.70;1.00;;;;;;4982949;28;20060;-75
2024/03/27 11:08:32;;;;;;;2.20;0.65;;;12.90;1.00;;;;;;4985175;28;20057;-74
2024/03/27 11:11:02;;;;;;;0.77;0.40;;;13.20;1.00;;;;;;4954014;28;20053;-74
2024/03/27 11:13:28;;;;;;;1.25;0.50;;;13.10;1.00;;;;;;4969223;28;20051;-74
2024/03/27 11:15:54;;;;;;;1.38;0.57;;;13.10;1.00;;;;;;4954741;28;20066;-75
2024/03/27 11:18:20;;;;;;;0.88;0.50;;;12.90;1.00;;;;;;4973276;28;20615;-74
2024/03/27 11:20:55;;;;;;;0.65;0.43;;;12.90;1.00;;;;;;4971863;28;20444;-74
2024/03/27 11:23:37;;;;;;;0.95;0.50;;;12.90;1.00;;;;;;4954268;28;20065;-75
2024/03/27 11:26:04;;;;;;;1.47;0.70;;;12.90;1.00;;;;;;4984700;28;20058;-75
2024/03/27 11:28:31;;;;;;;0.98;0.50;;;13.00;1.00;;;;;;4970892;28;20064;-75
2024/03/27 11:30:57;;;;;;;1.85;0.70;;;13.20;1.00;;;;;;4957565;28;20533;-75
2024/03/27 11:33:24;;;;;;;0.52;0.40;;;13.20;1.00;;;;;;4953530;28;20069;-74
2024/03/27 11:35:51;;;;;;;2.35;0.55;;;13.10;1.00;;;;;;4968478;28;20066;-75
2024/03/27 11:38:21;;;;;;;1.05;0.50;;;13.10;1.00;;;;;;4950946;28;20105;-75
2024/03/27 11:40:53;;;;;;;0.60;0.32;;;13.20;1.00;;;;;;4967202;28;20584;-75
2024/03/27 11:43:19;;;;;;;1.63;0.82;;;13.30;1.00;;;;;;4978172;28;20111;-75
2024/03/27 11:45:49;;;;;;;2.00;0.75;;;13.30;1.00;;;;;;4973297;28;20057;-74
2024/03/27 11:48:15;;;;;;;0.77;0.40;;;13.10;1.00;;;;;;4973943;28;20045;-74
2024/03/27 11:50:41;;;;;;;1.17;0.50;;;13.00;1.00;;;;;;4989454;28;20149;-74
2024/03/27 11:53:09;;;;;;;0.75;0.50;;;12.90;1.00;;;;;;4988162;28;20054;-74
2024/03/27 11:55:36;;;;;;;1.63;0.70;;;13.00;1.00;;;;;;4973641;28;20058;-74
2024/03/27 11:58:02;;;;;;;2.00;0.90;;;13.20;1.00;;;;;;4986029;28;20050;-74
2024/03/27 12:00:28;;;;;;;0.95;0.50;;;13.60;1.00;;;;;;4953592;28;20505;-75
2024/03/27 12:02:56;;;;;;;1.05;0.50;;;13.90;1.00;;;;;;4961374;28;20057;-75
2024/03/27 12:05:21;;;;;;;0.88;0.65;;;14.00;1.00;;;;;;4950755;28;20536;-75
2024/03/27 12:07:47;;;;;;;0.70;0.47;;;14.00;1.00;;;;;;4949425;28;20157;-74
2024/03/27 12:10:15;;;;;;;0.85;0.60;;;14.20;1.00;;;;;;4938529;28;20582;-75
2024/03/27 12:12:41;;;;;;;0.38;0.30;;;14.50;1.00;;;;;;4975531;28;20060;-74
2024/03/27 12:15:07;;;;;;;0.43;0.32;;;14.50;1.00;;;;;;4961122;28;20054;-74
2024/03/27 12:17:39;;;;;;;1.15;0.65;;;14.50;1.00;;;;;;4984921;28;20045;-74
2024/03/27 12:20:07;;;;;;;0.85;0.43;;;14.70;1.00;;;;;;4969385;28;20057;-74
2024/03/27 12:22:34;;;;;;;0.88;0.40;;;14.50;1.00;;;;;;4963710;28;20042;-76
2024/03/27 12:25:00;;;;;;;1.63;0.60;;;14.30;1.00;;;;;;4967882;28;20084;-74
2024/03/27 12:27:29;;;;;;;1.08;0.52;;;14.10;1.00;;;;;;4983229;28;20222;-73
2024/03/27 12:29:55;;;;;;;0.95;0.50;;;13.80;1.00;;;;;;4968860;28;20053;-73
2024/03/27 12:32:21;;;;;;;0.70;0.50;;;13.50;1.00;;;;;;4985227;28;20125;-73
2024/03/27 12:34:48;;;;;;;0.82;0.57;;;13.20;1.00;;;;;;4953065;28;20058;-76
2024/03/27 12:37:14;;;;;;;0.68;0.65;;;12.80;1.00;;;;;;4952740;28;20061;-76
2024/03/27 12:39:41;;;;;;;0.55;0.40;;;12.30;1.00;;;;;;4967536;28;20054;-76
2024/03/27 12:42:07;;;;;;;0.32;0.30;;;12.20;1.00;;;;;;4934071;28;20442;-76
2024/03/27 12:44:33;;;;;;;1.25;0.60;;;12.10;1.00;;;;;;4966079;28;20054;-75
2024/03/27 12:46:59;;;;;;;0.85;0.45;;;11.90;1.00;;;;;;4968859;28;20058;-76
2024/03/27 12:49:25;;;;;;;1.52;0.47;;;11.80;1.00;;;;;;4952178;28;20058;-76
2024/03/27 12:51:51;;;;;;;0.90;0.47;;;11.80;1.00;;;;;;4965451;28;20081;-75
2024/03/27 12:54:17;;;;;;;1.08;0.73;;;11.60;1.00;;;;;;4949472;28;20521;-76
2024/03/27 12:56:43;;;;;;;0.70;0.50;;;11.50;1.00;;;;;;4951003;28;20054;-75